Time;durP1;ratioP1;P1;durP2;ratioP2;P2;SDS_P1;SDS_P2;PMS_P1;PMS_P2;Temp;Humidity;BMP_temperature;BMP_pressure;BME280_temperature;BME280_humidity;BME280_pressure;Samples;Min_cycle;Max_cycle;Signal;HPM_P1;HPM_P2
2020/12/27 00:01:35;;;;;;;5.20;3.27;;;;;;;;;;5090077;28;20424;-55
2020/12/27 00:04:00;;;;;;;3.03;2.47;;;;;;;;;;5086192;28;20458;-54
2020/12/27 00:06:26;;;;;;;4.93;2.90;;;;;;;;;;5084614;28;20035;-54
2020/12/27 00:08:51;;;;;;;6.07;2.67;;;;;;;;;;5085501;28;20039;-51
2020/12/27 00:11:16;;;;;;;4.27;3.57;;;;;;;;;;5076523;28;20131;-56
2020/12/27 00:13:42;;;;;;;3.83;3.47;;;;;;;;;;5091577;28;20465;-54
2020/12/27 00:16:07;;;;;;;4.60;2.53;;;;;;;;;;5091226;28;20024;-56
2020/12/27 00:18:32;;;;;;;2.73;2.10;;;;;;;;;;5083266;28;20733;-53
2020/12/27 00:20:57;;;;;;;4.77;1.87;;;;;;;;;;5086756;28;20024;-53
2020/12/27 00:23:24;;;;;;;3.17;1.40;;;;;;;;;;5089617;28;20020;-55
2020/12/27 00:25:49;;;;;;;3.33;2.07;;;;;;;;;;5087369;28;20024;-54
2020/12/27 00:28:14;;;;;;;4.53;2.63;;;;;;;;;;5086190;28;20019;-54
2020/12/27 00:30:39;;;;;;;3.40;1.50;;;;;;;;;;5089219;28;20096;-56
2020/12/27 00:33:04;;;;;;;3.63;1.90;;;;;;;;;;5091300;28;20104;-55
2020/12/27 00:35:30;;;;;;;4.43;2.17;;;;;;;;;;5092304;28;20061;-55
2020/12/27 00:37:55;;;;;;;2.93;1.90;;;;;;;;;;5085893;28;20069;-55
2020/12/27 00:40:20;;;;;;;2.90;1.90;;;;;;;;;;5087465;28;20020;-55
2020/12/27 00:42:45;;;;;;;2.43;1.90;;;;;;;;;;5090586;28;20016;-54
2020/12/27 00:45:10;;;;;;;3.97;2.97;;;;;;;;;;5091955;28;20024;-52
2020/12/27 00:47:36;;;;;;;4.37;2.60;;;;;;;;;;5087121;28;20019;-56
2020/12/27 00:50:01;;;;;;;4.83;2.77;;;;;;;;;;5081490;28;20386;-53
2020/12/27 00:52:26;;;;;;;4.63;3.10;;;;;;;;;;5089888;28;20017;-56
2020/12/27 00:54:51;;;;;;;4.67;2.30;;;;;;;;;;5090798;28;20343;-53
2020/12/27 00:57:16;;;;;;;5.57;2.67;;;;;;;;;;5089081;28;20505;-54
2020/12/27 00:59:42;;;;;;;4.40;2.23;;;;;;;;;;5087655;28;20489;-54
2020/12/27 01:02:07;;;;;;;6.67;2.50;;;;;;;;;;5090787;28;20027;-55
2020/12/27 01:04:32;;;;;;;3.43;2.50;;;;;;;;;;5091095;28;20396;-52
2020/12/27 01:06:57;;;;;;;4.30;2.93;;;;;;;;;;5090416;28;20488;-54
2020/12/27 01:09:23;;;;;;;4.73;2.70;;;;;;;;;;5083110;28;20022;-56
2020/12/27 01:11:48;;;;;;;5.63;2.97;;;;;;;;;;5091777;28;20016;-56
2020/12/27 01:14:13;;;;;;;4.20;2.83;;;;;;;;;;5091055;28;20073;-53
2020/12/27 01:16:38;;;;;;;5.23;2.90;;;;;;;;;;5090534;28;20024;-53
2020/12/27 01:19:03;;;;;;;6.57;3.90;;;;;;;;;;5090376;28;20172;-55
2020/12/27 01:21:31;;;;;;;3.57;2.67;;;;;;;;;;5091652;28;20016;-54
2020/12/27 01:23:56;;;;;;;7.20;3.80;;;;;;;;;;5087363;28;20109;-56
2020/12/27 01:26:34;;;;;;;6.30;4.00;;;;;;;;;;5083852;28;20023;-55
2020/12/27 01:28:59;;;;;;;5.60;3.47;;;;;;;;;;5091445;28;20016;-55
2020/12/27 01:31:25;;;;;;;4.90;3.03;;;;;;;;;;5091944;28;20016;-53
2020/12/27 01:33:50;;;;;;;6.90;3.57;;;;;;;;;;5094940;28;20024;-53
2020/12/27 01:36:25;;;;;;;5.40;3.10;;;;;;;;;;5094431;28;20016;-53
2020/12/27 01:38:50;;;;;;;5.95;3.60;;;;;;;;;;5090968;28;20027;-55
2020/12/27 01:41:18;;;;;;;4.73;2.50;;;;;;;;;;5092560;28;20024;-52
2020/12/27 01:43:55;;;;;;;5.67;3.20;;;;;;;;;;5093442;28;20491;-55
2020/12/27 01:46:21;;;;;;;5.00;3.17;;;;;;;;;;5092706;28;20058;-52
2020/12/27 01:48:46;;;;;;;4.40;3.17;;;;;;;;;;5088108;28;20491;-55
2020/12/27 01:51:11;;;;;;;4.93;2.93;;;;;;;;;;5090229;28;20530;-50
2020/12/27 01:53:36;;;;;;;5.03;2.77;;;;;;;;;;5084557;28;20016;-53
2020/12/27 01:56:04;;;;;;;5.70;3.03;;;;;;;;;;5091562;28;20137;-54
2020/12/27 01:58:30;;;;;;;5.87;2.83;;;;;;;;;;5091650;28;20456;-49
2020/12/27 02:00:58;;;;;;;6.47;3.37;;;;;;;;;;5092783;28;20031;-56
2020/12/27 02:03:23;;;;;;;7.70;2.97;;;;;;;;;;5094116;28;20027;-55
2020/12/27 02:05:50;;;;;;;5.03;3.00;;;;;;;;;;5088807;28;20024;-54
2020/12/27 02:08:18;;;;;;;4.60;2.87;;;;;;;;;;5092114;28;20063;-54
2020/12/27 02:10:44;;;;;;;5.87;3.57;;;;;;;;;;5091183;28;20061;-51
2020/12/27 02:13:09;;;;;;;5.90;3.23;;;;;;;;;;5082583;28;20015;-54
2020/12/27 02:15:34;;;;;;;5.20;3.20;;;;;;;;;;5093719;28;20008;-56
2020/12/27 02:17:59;;;;;;;7.03;3.83;;;;;;;;;;5092670;28;20024;-50
2020/12/27 02:20:25;;;;;;;4.50;3.20;;;;;;;;;;5089255;28;20111;-56
2020/12/27 02:22:50;;;;;;;5.10;2.53;;;;;;;;;;5091173;28;20352;-55
2020/12/27 02:25:15;;;;;;;5.20;3.30;;;;;;;;;;5090054;28;20119;-52
2020/12/27 02:27:41;;;;;;;4.07;2.67;;;;;;;;;;5089577;28;20073;-54
2020/12/27 02:30:06;;;;;;;4.53;2.37;;;;;;;;;;5090755;28;20537;-56
2020/12/27 02:32:32;;;;;;;5.30;2.60;;;;;;;;;;5092663;28;20016;-53
2020/12/27 02:34:57;;;;;;;6.23;2.97;;;;;;;;;;5090828;28;20026;-52
2020/12/27 02:37:22;;;;;;;6.07;2.77;;;;;;;;;;5092519;28;20020;-51
2020/12/27 02:39:47;;;;;;;4.40;2.53;;;;;;;;;;5078123;28;20012;-54
2020/12/27 02:42:13;;;;;;;4.33;2.70;;;;;;;;;;5093419;28;20106;-52
2020/12/27 02:47:22;;;;;;;3.80;2.13;;;;;;;;;;5085972;28;20023;-55
2020/12/27 02:49:47;;;;;;;3.97;2.30;;;;;;;;;;5089462;28;20020;-54
2020/12/27 02:52:12;;;;;;;3.77;2.30;;;;;;;;;;5085645;28;20406;-55
2020/12/27 02:54:38;;;;;;;3.73;2.13;;;;;;;;;;5084162;28;20047;-55
2020/12/27 02:57:03;;;;;;;2.90;2.07;;;;;;;;;;5090871;28;20101;-54
2020/12/27 02:59:28;;;;;;;3.47;2.13;;;;;;;;;;5088837;28;20096;-49
2020/12/27 03:01:53;;;;;;;3.47;2.47;;;;;;;;;;5091346;28;20016;-55
2020/12/27 03:04:18;;;;;;;4.70;2.30;;;;;;;;;;5084813;28;20032;-55
2020/12/27 03:06:44;;;;;;;4.93;1.97;;;;;;;;;;5093497;28;20016;-55
2020/12/27 03:09:09;;;;;;;2.77;2.00;;;;;;;;;;5076264;28;20059;-52
2020/12/27 03:11:34;;;;;;;4.63;2.33;;;;;;;;;;5092163;28;20416;-52
2020/12/27 03:13:59;;;;;;;2.87;1.80;;;;;;;;;;5092456;28;20016;-55
2020/12/27 03:16:24;;;;;;;4.70;2.23;;;;;;;;;;5090558;28;20352;-52
2020/12/27 03:18:50;;;;;;;3.63;2.40;;;;;;;;;;5075658;28;20044;-53
2020/12/27 03:21:16;;;;;;;3.50;2.27;;;;;;;;;;5083599;28;20051;-53
2020/12/27 03:23:41;;;;;;;4.40;1.77;;;;;;;;;;5087011;28;20048;-51
2020/12/27 03:26:06;;;;;;;4.53;2.20;;;;;;;;;;5081410;28;20025;-54
2020/12/27 03:28:31;;;;;;;7.23;2.57;;;;;;;;;;5077791;28;20093;-52
2020/12/27 03:30:57;;;;;;;3.37;2.13;;;;;;;;;;5093178;28;20052;-55
2020/12/27 03:33:22;;;;;;;3.30;1.80;;;;;;;;;;5090466;28;20085;-55
2020/12/27 03:35:48;;;;;;;3.80;2.10;;;;;;;;;;5090995;28;20386;-53
2020/12/27 03:38:13;;;;;;;4.50;2.40;;;;;;;;;;5087631;28;20028;-53
2020/12/27 03:40:38;;;;;;;4.03;1.90;;;;;;;;;;5083437;28;20110;-53
2020/12/27 03:43:03;;;;;;;5.00;2.17;;;;;;;;;;5090904;28;20020;-57
2020/12/27 03:45:29;;;;;;;4.60;2.20;;;;;;;;;;5091852;28;20088;-56
2020/12/27 03:47:54;;;;;;;4.30;1.97;;;;;;;;;;5072291;28;20028;-53
2020/12/27 03:50:21;;;;;;;2.87;1.60;;;;;;;;;;5075958;28;20020;-52
2020/12/27 03:52:46;;;;;;;3.53;1.73;;;;;;;;;;5084085;28;20035;-56
2020/12/27 03:55:11;;;;;;;2.67;1.63;;;;;;;;;;5088065;28;20016;-54
2020/12/27 03:57:37;;;;;;;2.90;2.03;;;;;;;;;;5089894;28;20028;-54
2020/12/27 04:00:03;;;;;;;2.50;1.40;;;;;;;;;;5086696;28;20066;-55
2020/12/27 04:02:28;;;;;;;1.60;1.20;;;;;;;;;;5082991;28;20020;-56
2020/12/27 04:04:54;;;;;;;3.57;1.60;;;;;;;;;;5092465;28;20024;-56
2020/12/27 04:07:19;;;;;;;2.03;1.47;;;;;;;;;;5089086;28;20018;-56
2020/12/27 04:09:44;;;;;;;2.80;1.27;;;;;;;;;;5089589;28;20016;-55
2020/12/27 04:12:13;;;;;;;2.43;1.30;;;;;;;;;;5091248;28;20016;-56
2020/12/27 04:14:38;;;;;;;2.73;1.50;;;;;;;;;;5087423;28;20036;-56
2020/12/27 04:17:04;;;;;;;3.90;1.53;;;;;;;;;;5088734;28;20036;-54
2020/12/27 04:19:29;;;;;;;2.20;1.50;;;;;;;;;;5086720;28;20532;-55
2020/12/27 04:21:54;;;;;;;2.47;1.70;;;;;;;;;;5089505;28;20077;-57
2020/12/27 04:24:19;;;;;;;2.00;1.10;;;;;;;;;;5090938;28;20101;-55
2020/12/27 04:26:47;;;;;;;3.23;1.47;;;;;;;;;;5092351;28;20070;-56
2020/12/27 04:29:12;;;;;;;2.40;1.27;;;;;;;;;;5088888;28;20020;-53
2020/12/27 04:31:37;;;;;;;3.20;1.40;;;;;;;;;;5089846;28;20421;-55
2020/12/27 04:34:03;;;;;;;2.90;1.67;;;;;;;;;;5089843;28;20020;-52
2020/12/27 04:36:28;;;;;;;3.37;1.87;;;;;;;;;;5092191;28;20008;-51
2020/12/27 04:38:53;;;;;;;2.40;2.07;;;;;;;;;;5081736;28;20432;-51
2020/12/27 04:41:19;;;;;;;3.53;2.03;;;;;;;;;;5091687;28;20044;-57
2020/12/27 04:43:45;;;;;;;1.57;1.20;;;;;;;;;;5089215;28;20070;-48
2020/12/27 04:46:11;;;;;;;2.80;2.07;;;;;;;;;;5092210;28;20021;-56
2020/12/27 04:48:40;;;;;;;2.93;1.47;;;;;;;;;;5088180;28;20268;-52
2020/12/27 04:51:06;;;;;;;2.63;1.50;;;;;;;;;;5091706;28;20025;-55
2020/12/27 04:53:33;;;;;;;4.00;1.50;;;;;;;;;;5091161;28;20020;-53
2020/12/27 04:56:00;;;;;;;2.23;1.60;;;;;;;;;;5091540;28;20020;-50
2020/12/27 04:58:25;;;;;;;2.70;2.00;;;;;;;;;;5092609;28;20085;-55
2020/12/27 05:00:50;;;;;;;3.40;1.80;;;;;;;;;;5094590;28;20019;-54
2020/12/27 05:03:16;;;;;;;2.57;1.63;;;;;;;;;;5094092;28;20027;-50
2020/12/27 05:05:41;;;;;;;2.60;1.60;;;;;;;;;;5094768;28;20024;-54
2020/12/27 05:08:06;;;;;;;2.40;1.93;;;;;;;;;;5092133;28;20097;-52
2020/12/27 05:10:31;;;;;;;2.17;1.30;;;;;;;;;;5092479;28;20012;-50
2020/12/27 05:12:57;;;;;;;3.20;1.83;;;;;;;;;;5094955;28;20030;-53
2020/12/27 05:15:22;;;;;;;4.50;2.03;;;;;;;;;;5094771;28;20027;-53
2020/12/27 05:17:48;;;;;;;3.90;1.77;;;;;;;;;;5093444;28;20032;-55
2020/12/27 05:20:14;;;;;;;3.30;1.30;;;;;;;;;;5092494;28;20020;-56
2020/12/27 05:22:40;;;;;;;2.50;1.70;;;;;;;;;;5088821;28;20069;-53
2020/12/27 05:25:05;;;;;;;4.23;1.83;;;;;;;;;;5084046;28;20048;-54
2020/12/27 05:27:31;;;;;;;3.23;1.63;;;;;;;;;;5094655;28;20069;-55
2020/12/27 05:29:59;;;;;;;2.27;1.50;;;;;;;;;;5091532;28;20016;-55
2020/12/27 05:32:24;;;;;;;2.30;1.10;;;;;;;;;;5094828;28;20016;-57
2020/12/27 05:34:49;;;;;;;2.93;1.60;;;;;;;;;;5094304;28;20344;-55
2020/12/27 05:37:16;;;;;;;2.47;1.27;;;;;;;;;;5093505;28;20024;-53
2020/12/27 05:39:44;;;;;;;1.97;1.20;;;;;;;;;;5092062;28;20522;-55
2020/12/27 05:42:09;;;;;;;2.07;0.90;;;;;;;;;;5091903;28;20020;-55
2020/12/27 05:44:35;;;;;;;2.40;1.23;;;;;;;;;;5095003;28;20027;-56
2020/12/27 05:47:01;;;;;;;3.63;1.10;;;;;;;;;;5093987;28;20028;-55
2020/12/27 05:49:26;;;;;;;3.67;1.10;;;;;;;;;;5090243;28;20062;-54
2020/12/27 05:51:53;;;;;;;2.57;1.20;;;;;;;;;;5088226;28;20047;-57
2020/12/27 05:54:33;;;;;;;1.93;1.30;;;;;;;;;;5089928;28;20152;-54
2020/12/27 05:56:59;;;;;;;3.43;1.07;;;;;;;;;;5092382;28;20123;-54
2020/12/27 05:59:26;;;;;;;2.63;1.10;;;;;;;;;;5090716;28;20284;-55
2020/12/27 06:01:54;;;;;;;3.30;1.13;;;;;;;;;;5088697;28;20028;-51
2020/12/27 06:04:45;;;;;;;2.33;1.10;;;;;;;;;;5093659;28;20032;-57
2020/12/27 06:07:16;;;;;;;2.93;1.07;;;;;;;;;;5069047;28;20028;-53
2020/12/27 06:09:50;;;;;;;2.20;0.90;;;;;;;;;;5089244;28;20482;-52
2020/12/27 06:12:18;;;;;;;1.65;0.80;;;;;;;;;;5092778;28;20020;-54
2020/12/27 06:14:43;;;;;;;1.83;0.80;;;;;;;;;;5094648;28;20447;-53
2020/12/27 06:17:10;;;;;;;1.40;0.90;;;;;;;;;;5090311;28;20051;-54
2020/12/27 06:19:35;;;;;;;2.10;0.70;;;;;;;;;;5090840;28;20425;-54
2020/12/27 06:22:03;;;;;;;3.90;1.03;;;;;;;;;;5087410;28;20017;-50
2020/12/27 06:24:32;;;;;;;1.37;0.70;;;;;;;;;;5090224;28;20124;-55
2020/12/27 06:26:58;;;;;;;2.10;1.10;;;;;;;;;;5091211;28;20051;-53
2020/12/27 06:29:23;;;;;;;1.83;0.90;;;;;;;;;;5090691;28;20486;-53
2020/12/27 06:31:50;;;;;;;1.80;0.80;;;;;;;;;;5093181;28;20386;-54
2020/12/27 06:34:15;;;;;;;3.57;1.00;;;;;;;;;;5079751;28;20048;-57
2020/12/27 06:36:41;;;;;;;2.37;0.97;;;;;;;;;;5085455;28;20502;-56
2020/12/27 06:39:22;;;;;;;2.40;1.13;;;;;;;;;;5089273;28;20016;-54
2020/12/27 06:42:07;;;;;;;3.43;1.17;;;;;;;;;;5086448;28;20024;-54
2020/12/27 06:44:39;;;;;;;1.90;1.30;;;;;;;;;;5093225;28;20024;-55
2020/12/27 06:47:05;;;;;;;2.23;1.20;;;;;;;;;;5083867;28;20032;-56
2020/12/27 06:49:30;;;;;;;1.83;1.40;;;;;;;;;;5075531;28;20486;-54
2020/12/27 06:51:55;;;;;;;2.10;1.00;;;;;;;;;;5082284;28;20024;-52
2020/12/27 06:54:40;;;;;;;2.40;1.27;;;;;;;;;;5088713;28;20463;-54
2020/12/27 06:57:05;;;;;;;2.67;1.30;;;;;;;;;;5084433;28;20020;-54
2020/12/27 06:59:31;;;;;;;2.63;1.50;;;;;;;;;;5090676;28;20136;-52
2020/12/27 07:02:04;;;;;;;2.93;1.40;;;;;;;;;;5092724;28;20020;-53
2020/12/27 07:04:34;;;;;;;1.97;1.10;;;;;;;;;;5092138;28;20024;-53
2020/12/27 07:07:00;;;;;;;3.53;1.53;;;;;;;;;;5088916;28;20035;-56
2020/12/27 07:09:26;;;;;;;2.97;1.80;;;;;;;;;;5088257;28;20024;-54
2020/12/27 07:12:04;;;;;;;3.80;1.23;;;;;;;;;;5092515;28;20031;-52
2020/12/27 07:14:29;;;;;;;2.33;1.20;;;;;;;;;;5091947;28;20024;-55
2020/12/27 07:16:55;;;;;;;2.53;1.53;;;;;;;;;;5090851;28;20237;-54
2020/12/27 07:19:23;;;;;;;3.83;1.63;;;;;;;;;;5089497;28;20012;-52
2020/12/27 07:21:48;;;;;;;2.43;1.20;;;;;;;;;;5088824;28;20038;-56
2020/12/27 07:24:14;;;;;;;2.53;1.70;;;;;;;;;;5085204;28;20045;-53
2020/12/27 07:26:42;;;;;;;1.87;1.33;;;;;;;;;;5089818;28;20020;-50
2020/12/27 07:29:07;;;;;;;1.80;1.57;;;;;;;;;;5089715;28;20534;-51
2020/12/27 07:31:34;;;;;;;2.00;1.80;;;;;;;;;;5092679;28;20052;-53
2020/12/27 07:33:59;;;;;;;2.87;1.40;;;;;;;;;;5092925;28;20020;-57
2020/12/27 07:36:25;;;;;;;2.57;1.30;;;;;;;;;;5084097;28;20013;-55
2020/12/27 07:38:50;;;;;;;2.90;1.40;;;;;;;;;;5069549;28;20028;-55
2020/12/27 07:41:19;;;;;;;2.83;1.90;;;;;;;;;;5089302;28;20016;-54
2020/12/27 07:43:45;;;;;;;2.63;1.30;;;;;;;;;;5091997;28;20028;-52
2020/12/27 07:46:10;;;;;;;3.13;1.67;;;;;;;;;;5090396;28;20024;-53
2020/12/27 07:48:41;;;;;;;2.37;1.27;;;;;;;;;;5083036;28;20027;-55
2020/12/27 07:51:10;;;;;;;3.67;1.87;;;;;;;;;;5090403;28;20091;-53
2020/12/27 07:53:35;;;;;;;3.13;1.50;;;;;;;;;;5077575;28;20027;-51
2020/12/27 07:56:00;;;;;;;2.67;1.70;;;;;;;;;;5085874;28;20012;-53
2020/12/27 07:58:26;;;;;;;3.00;2.03;;;;;;;;;;5089682;28;20027;-57
2020/12/27 08:00:51;;;;;;;3.20;2.10;;;;;;;;;;5088966;28;20025;-51
2020/12/27 08:03:19;;;;;;;3.00;2.30;;;;;;;;;;5086380;28;20035;-54
2020/12/27 08:05:44;;;;;;;2.83;1.87;;;;;;;;;;5084863;28;20028;-55
2020/12/27 08:08:10;;;;;;;2.43;1.60;;;;;;;;;;5089734;28;20020;-54
2020/12/27 08:10:35;;;;;;;2.67;1.77;;;;;;;;;;5086194;28;20008;-55
2020/12/27 08:13:02;;;;;;;2.87;1.70;;;;;;;;;;5087869;28;20482;-57
2020/12/27 08:15:28;;;;;;;3.63;2.43;;;;;;;;;;5086518;28;20024;-57
2020/12/27 08:17:59;;;;;;;3.10;1.60;;;;;;;;;;5086752;28;20039;-52
2020/12/27 08:20:25;;;;;;;2.47;1.87;;;;;;;;;;5087865;28;20020;-55
2020/12/27 08:23:01;;;;;;;2.57;1.40;;;;;;;;;;5086039;28;20031;-56
2020/12/27 08:25:27;;;;;;;2.67;1.73;;;;;;;;;;5082694;28;20056;-56
2020/12/27 08:27:53;;;;;;;2.77;1.63;;;;;;;;;;5090625;28;20031;-56
2020/12/27 08:30:18;;;;;;;2.63;1.50;;;;;;;;;;5092400;28;20012;-56
2020/12/27 08:32:43;;;;;;;4.57;1.73;;;;;;;;;;5095492;28;20100;-56
2020/12/27 08:35:09;;;;;;;2.50;1.77;;;;;;;;;;5095750;28;20012;-56
2020/12/27 08:37:36;;;;;;;2.37;1.10;;;;;;;;;;5095120;28;20027;-55
2020/12/27 08:40:03;;;;;;;2.43;1.93;;;;;;;;;;5092922;28;20034;-52
2020/12/27 08:42:45;;;;;;;1.73;1.13;;;;;;;;;;5095487;28;20028;-56
2020/12/27 08:45:13;;;;;;;2.83;1.20;;;;;;;;;;5095095;28;20031;-53
2020/12/27 08:47:56;;;;;;;2.40;1.50;;;;;;;;;;5095301;28;20455;-56
2020/12/27 08:50:26;;;;;;;4.20;1.07;;;;;;;;;;5092632;28;20488;-57
2020/12/27 08:52:53;;;;;;;2.73;1.30;;;;;;;;;;5095056;28;20019;-55
2020/12/27 08:55:37;;;;;;;1.57;1.07;;;;;;;;;;5090333;28;20029;-54
2020/12/27 08:58:03;;;;;;;2.10;1.33;;;;;;;;;;5086601;28;20046;-57
2020/12/27 09:00:31;;;;;;;1.60;1.20;;;;;;;;;;5089304;28;20068;-55
2020/12/27 09:02:57;;;;;;;1.77;0.90;;;;;;;;;;5095598;28;20119;-54
2020/12/27 09:05:27;;;;;;;2.10;1.00;;;;;;;;;;5095613;28;20108;-53
2020/12/27 09:07:52;;;;;;;3.70;1.00;;;;;;;;;;5095026;28;20032;-56
2020/12/27 09:10:20;;;;;;;2.17;0.90;;;;;;;;;;5092206;28;20085;-56
2020/12/27 09:12:55;;;;;;;2.70;1.10;;;;;;;;;;5094908;28;20544;-54
2020/12/27 09:15:24;;;;;;;1.80;1.08;;;;;;;;;;5094460;28;20016;-57
2020/12/27 09:18:03;;;;;;;3.83;1.03;;;;;;;;;;5090621;28;20073;-55
2020/12/27 09:20:29;;;;;;;1.80;0.97;;;;;;;;;;5092771;28;20077;-57
2020/12/27 09:22:55;;;;;;;1.93;1.00;;;;;;;;;;5091181;28;20031;-53
2020/12/27 09:25:21;;;;;;;2.37;0.90;;;;;;;;;;5085963;28;20122;-55
2020/12/27 09:27:47;;;;;;;1.90;0.90;;;;;;;;;;5094255;28;20027;-54
2020/12/27 09:30:17;;;;;;;1.73;0.97;;;;;;;;;;5090443;28;20012;-55
2020/12/27 09:32:42;;;;;;;2.17;1.03;;;;;;;;;;5091412;28;20017;-56
2020/12/27 09:35:07;;;;;;;2.23;0.90;;;;;;;;;;5094094;28;20020;-53
2020/12/27 09:37:33;;;;;;;1.20;0.80;;;;;;;;;;5094223;28;20020;-54
2020/12/27 09:39:59;;;;;;;2.37;1.10;;;;;;;;;;5089503;28;20024;-54
2020/12/27 09:42:26;;;;;;;3.37;0.93;;;;;;;;;;5094242;28;20491;-54
2020/12/27 09:44:52;;;;;;;2.00;0.80;;;;;;;;;;5090066;28;20103;-55
2020/12/27 09:47:21;;;;;;;1.90;0.70;;;;;;;;;;5094050;28;20103;-56
2020/12/27 09:49:57;;;;;;;1.13;0.57;;;;;;;;;;5091472;28;20020;-55
2020/12/27 09:52:23;;;;;;;1.37;1.00;;;;;;;;;;5094072;28;20016;-54
2020/12/27 09:54:48;;;;;;;1.93;0.70;;;;;;;;;;5093708;28;20023;-55
2020/12/27 09:57:14;;;;;;;1.27;0.80;;;;;;;;;;5086796;28;20360;-56
2020/12/27 09:59:40;;;;;;;0.87;0.57;;;;;;;;;;5090799;28;20063;-55
2020/12/27 10:02:05;;;;;;;0.90;0.60;;;;;;;;;;5093666;28;20065;-55
2020/12/27 10:04:31;;;;;;;0.97;0.50;;;;;;;;;;5092164;28;20028;-56
2020/12/27 10:06:56;;;;;;;0.93;0.57;;;;;;;;;;5093279;28;20483;-56
2020/12/27 10:09:21;;;;;;;1.97;0.90;;;;;;;;;;5089856;28;20415;-54
2020/12/27 10:11:47;;;;;;;1.17;0.60;;;;;;;;;;5090520;28;20410;-53
2020/12/27 10:14:12;;;;;;;1.50;0.80;;;;;;;;;;5079491;28;20356;-55
2020/12/27 10:16:37;;;;;;;1.50;0.90;;;;;;;;;;5062802;28;20024;-55
2020/12/27 10:19:02;;;;;;;1.10;0.73;;;;;;;;;;5081668;28;20349;-55
2020/12/27 10:21:27;;;;;;;1.20;0.60;;;;;;;;;;5093271;28;20399;-53
2020/12/27 10:23:53;;;;;;;2.43;1.00;;;;;;;;;;5090688;28;20044;-54
2020/12/27 10:26:18;;;;;;;0.73;0.70;;;;;;;;;;5093566;28;20012;-55
2020/12/27 10:28:43;;;;;;;0.90;0.70;;;;;;;;;;5085490;28;20431;-55
2020/12/27 10:31:09;;;;;;;1.00;0.53;;;;;;;;;;5093288;28;20396;-57
2020/12/27 10:33:34;;;;;;;2.37;0.67;;;;;;;;;;5092159;28;20024;-54
2020/12/27 10:35:59;;;;;;;1.03;0.53;;;;;;;;;;5093449;28;20026;-55
2020/12/27 10:38:24;;;;;;;0.87;0.40;;;;;;;;;;5090271;28;20070;-54
2020/12/27 10:40:50;;;;;;;0.90;0.50;;;;;;;;;;5093019;28;20394;-56
2020/12/27 10:43:15;;;;;;;0.83;0.50;;;;;;;;;;5092794;28;20027;-54
2020/12/27 10:45:40;;;;;;;1.43;0.40;;;;;;;;;;5089382;28;20024;-54
2020/12/27 10:48:06;;;;;;;1.40;0.87;;;;;;;;;;5091074;28;20114;-56
2020/12/27 10:50:31;;;;;;;1.30;0.57;;;;;;;;;;5075138;28;20051;-53
2020/12/27 10:52:56;;;;;;;0.93;0.53;;;;;;;;;;5092220;28;20019;-55
2020/12/27 10:55:21;;;;;;;0.93;0.40;;;;;;;;;;5097258;28;20027;-56
2020/12/27 10:57:47;;;;;;;0.70;0.30;;;;;;;;;;5095431;28;20027;-55
2020/12/27 11:00:12;;;;;;;0.50;0.30;;;;;;;;;;5090161;28;20020;-56
2020/12/27 11:02:37;;;;;;;1.67;0.67;;;;;;;;;;5093264;28;20067;-57
2020/12/27 11:05:02;;;;;;;0.70;0.30;;;;;;;;;;5092630;28;20020;-55
2020/12/27 11:07:27;;;;;;;0.73;0.40;;;;;;;;;;5092611;28;20213;-55
2020/12/27 11:09:53;;;;;;;0.73;0.40;;;;;;;;;;5089752;28;20149;-53
2020/12/27 11:12:18;;;;;;;1.13;0.40;;;;;;;;;;5091860;28;20022;-55
2020/12/27 11:14:43;;;;;;;1.17;0.20;;;;;;;;;;5089040;28;20027;-53
2020/12/27 11:17:08;;;;;;;1.73;0.20;;;;;;;;;;5092493;28;20087;-55
2020/12/27 11:19:34;;;;;;;0.47;0.30;;;;;;;;;;5089151;28;20024;-55
2020/12/27 11:21:59;;;;;;;0.40;0.30;;;;;;;;;;5092720;28;20028;-54
2020/12/27 11:24:24;;;;;;;0.80;0.20;;;;;;;;;;5079133;28;20035;-57
2020/12/27 11:26:53;;;;;;;0.30;0.20;;;;;;;;;;5092812;28;20418;-55
2020/12/27 11:29:18;;;;;;;1.10;0.22;;;;;;;;;;5089398;28;20028;-56
2020/12/27 11:31:43;;;;;;;0.50;0.30;;;;;;;;;;5091100;28;20081;-54
2020/12/27 11:34:08;;;;;;;0.77;0.50;;;;;;;;;;5091815;28;20966;-55
2020/12/27 11:36:34;;;;;;;0.45;0.22;;;;;;;;;;5091309;28;20016;-55
2020/12/27 11:38:59;;;;;;;0.50;0.30;;;;;;;;;;5084126;28;20036;-57
2020/12/27 11:41:24;;;;;;;0.60;0.30;;;;;;;;;;5088758;28;20463;-57
2020/12/27 11:43:50;;;;;;;0.47;0.30;;;;;;;;;;5086478;28;20053;-55
2020/12/27 11:46:15;;;;;;;1.27;0.30;;;;;;;;;;5086967;28;20024;-53
2020/12/27 11:48:40;;;;;;;0.93;0.40;;;;;;;;;;5079504;28;20112;-56
2020/12/27 11:51:06;;;;;;;0.55;0.30;;;;;;;;;;5088111;28;20032;-54
2020/12/27 11:53:32;;;;;;;0.30;0.20;;;;;;;;;;5090658;28;20031;-54
2020/12/27 11:55:57;;;;;;;0.60;0.40;;;;;;;;;;5092364;28;20016;-55
2020/12/27 11:58:22;;;;;;;2.07;0.30;;;;;;;;;;5089006;28;20023;-53
2020/12/27 12:00:47;;;;;;;0.93;0.32;;;;;;;;;;5091421;28;20055;-56
2020/12/27 12:03:13;;;;;;;0.52;0.30;;;;;;;;;;5092375;28;20022;-52
2020/12/27 12:05:38;;;;;;;0.60;0.30;;;;;;;;;;5092033;28;20046;-54
2020/12/27 12:08:03;;;;;;;0.67;0.20;;;;;;;;;;5092149;28;20103;-56
2020/12/27 12:10:29;;;;;;;0.70;0.30;;;;;;;;;;5087972;28;20012;-52
2020/12/27 12:12:54;;;;;;;0.80;0.40;;;;;;;;;;5088370;28;20070;-55
2020/12/27 12:15:19;;;;;;;0.53;0.30;;;;;;;;;;5092010;28;20055;-52
2020/12/27 12:17:44;;;;;;;0.90;0.50;;;;;;;;;;5092160;28;20099;-52
2020/12/27 12:20:55;;;;;;;0.50;0.30;;;;;;;;;;5088663;28;20469;-54
2020/12/27 12:22:55;;;;;;;1.05;0.28;;;;;;;;;;5075640;28;20675;-54
2020/12/27 12:25:20;;;;;;;0.60;0.20;;;;;;;;;;5089936;28;20135;-56
2020/12/27 12:27:46;;;;;;;1.13;0.60;;;;;;;;;;5091773;28;20028;-54
2020/12/27 12:30:11;;;;;;;0.90;0.40;;;;;;;;;;5088421;28;20020;-54
2020/12/27 12:32:36;;;;;;;0.83;0.30;;;;;;;;;;5091695;28;20391;-53
2020/12/27 12:35:02;;;;;;;1.47;0.40;;;;;;;;;;5092219;28;20044;-50
2020/12/27 12:37:27;;;;;;;1.60;0.50;;;;;;;;;;5091974;28;20131;-54
2020/12/27 12:39:52;;;;;;;1.27;0.43;;;;;;;;;;5088061;28;20394;-55
2020/12/27 12:42:17;;;;;;;1.53;0.70;;;;;;;;;;5083144;28;20024;-52
2020/12/27 12:44:42;;;;;;;1.20;0.50;;;;;;;;;;5092248;28;20023;-53
2020/12/27 12:47:08;;;;;;;1.30;0.33;;;;;;;;;;5091986;28;20056;-54
2020/12/27 12:49:33;;;;;;;0.97;0.50;;;;;;;;;;5089238;28;20109;-52
2020/12/27 12:51:58;;;;;;;0.70;0.40;;;;;;;;;;5091456;28;20489;-54
2020/12/27 12:54:23;;;;;;;1.17;0.60;;;;;;;;;;5091852;28;20008;-53
2020/12/27 12:56:49;;;;;;;0.50;0.43;;;;;;;;;;5091680;28;20460;-54
2020/12/27 12:59:14;;;;;;;1.30;0.40;;;;;;;;;;5088746;28;20099;-52
2020/12/27 13:01:39;;;;;;;0.70;0.40;;;;;;;;;;5091963;28;20013;-53
2020/12/27 13:04:04;;;;;;;0.90;0.37;;;;;;;;;;5092075;28;20052;-50
2020/12/27 13:06:29;;;;;;;1.13;0.40;;;;;;;;;;5091599;28;20095;-56
2020/12/27 13:08:55;;;;;;;1.63;0.40;;;;;;;;;;5088684;28;20028;-54
2020/12/27 13:11:20;;;;;;;0.50;0.30;;;;;;;;;;5089415;28;20110;-54
2020/12/27 13:13:46;;;;;;;0.90;0.47;;;;;;;;;;5091539;28;20016;-52
2020/12/27 13:16:11;;;;;;;1.53;0.40;;;;;;;;;;5095166;28;20075;-52
2020/12/27 13:18:36;;;;;;;1.07;0.47;;;;;;;;;;5091794;28;20505;-54
2020/12/27 13:21:01;;;;;;;0.97;0.37;;;;;;;;;;5095128;28;20047;-56
2020/12/27 13:23:28;;;;;;;1.70;0.40;;;;;;;;;;5094814;28;20383;-54
2020/12/27 13:25:53;;;;;;;1.17;0.30;;;;;;;;;;5094222;28;20028;-53
2020/12/27 13:28:19;;;;;;;1.53;0.40;;;;;;;;;;5089468;28;20024;-53
2020/12/27 13:30:44;;;;;;;0.70;0.43;;;;;;;;;;5092810;28;20046;-48
2020/12/27 13:33:10;;;;;;;1.00;0.50;;;;;;;;;;5092476;28;20027;-54
2020/12/27 13:35:35;;;;;;;1.20;0.60;;;;;;;;;;5082895;28;20024;-53
2020/12/27 13:38:00;;;;;;;1.80;0.70;;;;;;;;;;5092432;28;20413;-54
2020/12/27 13:40:25;;;;;;;1.13;0.70;;;;;;;;;;5082825;28;20463;-52
2020/12/27 13:42:50;;;;;;;1.07;0.70;;;;;;;;;;5094691;28;20028;-52
2020/12/27 13:45:16;;;;;;;2.13;0.70;;;;;;;;;;5094941;28;20458;-53
2020/12/27 13:47:41;;;;;;;1.47;0.50;;;;;;;;;;5092941;28;20020;-52
2020/12/27 13:50:06;;;;;;;1.47;0.50;;;;;;;;;;5090735;28;20024;-55
2020/12/27 13:52:31;;;;;;;0.97;0.60;;;;;;;;;;5080073;28;20390;-52
2020/12/27 13:54:57;;;;;;;3.00;1.23;;;;;;;;;;5089803;28;20063;-51
2020/12/27 13:57:22;;;;;;;3.03;0.77;;;;;;;;;;5091660;28;20465;-51
2020/12/27 13:59:47;;;;;;;2.67;1.23;;;;;;;;;;5089006;28;20035;-56
2020/12/27 14:02:12;;;;;;;2.03;1.33;;;;;;;;;;5094011;28;20020;-54
2020/12/27 14:04:38;;;;;;;1.73;0.93;;;;;;;;;;5093960;28;20103;-54
2020/12/27 14:07:03;;;;;;;2.00;1.77;;;;;;;;;;5094256;28;20026;-54
2020/12/27 14:09:28;;;;;;;2.93;1.47;;;;;;;;;;5090412;28;20012;-54
2020/12/27 14:11:53;;;;;;;2.77;1.50;;;;;;;;;;5094223;28;20089;-49
2020/12/27 14:14:19;;;;;;;2.70;1.27;;;;;;;;;;5093891;28;20040;-48
2020/12/27 14:16:50;;;;;;;5.23;1.43;;;;;;;;;;5082975;28;20063;-54
2020/12/27 14:19:16;;;;;;;3.47;1.20;;;;;;;;;;5082361;28;20016;-50
2020/12/27 14:21:41;;;;;;;2.23;1.20;;;;;;;;;;5094059;28;20020;-52
2020/12/27 14:24:06;;;;;;;2.80;1.27;;;;;;;;;;5090212;28;20380;-54
2020/12/27 14:26:35;;;;;;;2.47;1.37;;;;;;;;;;5086850;28;20022;-54
2020/12/27 14:29:01;;;;;;;1.80;1.30;;;;;;;;;;5088889;28;20501;-52
2020/12/27 14:31:26;;;;;;;3.87;1.50;;;;;;;;;;5093140;28;20028;-53
2020/12/27 14:33:51;;;;;;;1.87;1.30;;;;;;;;;;5094188;28;20057;-49
2020/12/27 14:36:17;;;;;;;2.50;1.00;;;;;;;;;;5092661;28;20136;-52
2020/12/27 14:38:42;;;;;;;1.70;0.70;;;;;;;;;;5090442;28;20268;-53
2020/12/27 14:41:07;;;;;;;2.47;1.20;;;;;;;;;;5092981;28;20645;-53